Time;durP1;ratioP1;P1;durP2;ratioP2;P2;SDS_P1;SDS_P2;PMS_P1;PMS_P2;Temp;Humidity;BMP_temperature;BMP_pressure;BME280_temperature;BME280_humidity;BME280_pressure;Samples;Min_cycle;Max_cycle;Signal;HPM_P1;HPM_P2
2021/10/06 00:00:39;;;;;;;9.23;6.38;;;;;;;14.83;65.11;96269.31;6092874;23;20021;-93
2021/10/06 00:03:05;;;;;;;8.35;5.30;;;;;;;14.60;65.34;96257.50;6092762;23;20010;-92
2021/10/06 00:05:31;;;;;;;8.80;5.80;;;;;;;14.55;65.32;96269.13;6092679;23;20006;-92
2021/10/06 00:07:56;;;;;;;7.13;5.97;;;;;;;14.56;66.53;96258.97;6092771;23;19998;-93
2021/10/06 00:10:22;;;;;;;10.77;6.25;;;;;;;14.57;65.93;96254.97;6092872;23;20014;-93
2021/10/06 00:12:48;;;;;;;8.82;5.57;;;;;;;14.68;65.40;96266.72;6092859;23;20037;-93
2021/10/06 00:15:14;;;;;;;11.82;6.20;;;;;;;14.78;62.74;96289.16;6092770;23;20049;-92
2021/10/06 00:17:41;;;;;;;10.65;5.82;;;;;;;14.42;64.92;96241.44;6092621;23;20006;-92
2021/10/06 00:20:08;;;;;;;8.18;5.60;;;;;;;14.73;64.75;96287.16;6092679;23;20015;-93
2021/10/06 00:22:34;;;;;;;8.10;5.82;;;;;;;14.51;63.64;96259.66;6092527;23;20458;-93
2021/10/06 00:24:59;;;;;;;10.80;5.85;;;;;;;14.43;65.28;96256.59;6092709;23;20010;-93
2021/10/06 00:27:25;;;;;;;10.82;5.70;;;;;;;14.67;64.77;96289.84;6092722;23;20010;-92
2021/10/06 00:29:50;;;;;;;12.90;5.38;;;;;;;14.53;63.79;96273.56;6092652;23;20022;-93
2021/10/06 00:32:16;;;;;;;6.50;5.20;;;;;;;14.58;60.63;96261.94;6092601;23;20049;-93
2021/10/06 00:34:42;;;;;;;9.40;5.32;;;;;;;14.61;61.99;96269.19;6093197;23;20018;-93
2021/10/06 00:37:07;;;;;;;9.90;6.07;;;;;;;14.65;63.86;96262.25;6093601;23;20034;-94
2021/10/06 00:39:33;;;;;;;7.50;5.07;;;;;;;14.81;58.20;96266.34;6093674;23;20081;-93
2021/10/06 00:41:58;;;;;;;10.63;5.55;;;;;;;14.89;60.48;96280.28;6093720;23;20041;-93
2021/10/06 00:44:24;;;;;;;9.10;4.95;;;;;;;14.94;62.24;96279.56;6093566;23;20444;-93
2021/10/06 00:46:50;;;;;;;9.73;5.03;;;;;;;14.66;63.74;96241.13;6093642;23;20057;-94
2021/10/06 00:49:17;;;;;;;9.18;5.50;;;;;;;14.65;65.19;96242.38;6093685;23;20038;-94
2021/10/06 00:51:43;;;;;;;6.50;5.10;;;;;;;14.75;64.21;96253.84;6093754;23;20026;-93
2021/10/06 00:54:09;;;;;;;9.48;5.00;;;;;;;14.79;63.88;96249.66;6093928;23;20014;-94
2021/10/06 00:56:35;;;;;;;5.70;4.90;;;;;;;14.83;61.60;96260.38;6093639;23;20010;-93
2021/10/06 00:59:02;;;;;;;8.48;5.53;;;;;;;14.93;59.06;96276.09;6093382;23;20011;-93
2021/10/06 01:01:27;;;;;;;11.45;5.90;;;;;;;14.87;61.36;96264.38;6093654;23;20449;-94
2021/10/06 01:03:53;;;;;;;6.28;5.32;;;;;;;14.92;59.38;96260.94;6093609;23;20093;-94
2021/10/06 01:06:19;;;;;;;7.10;5.40;;;;;;;14.80;56.69;96256.63;6093611;23;20037;-93
2021/10/06 01:08:44;;;;;;;7.53;5.30;;;;;;;14.98;58.79;96271.16;6093743;23;20005;-93
2021/10/06 01:11:11;;;;;;;12.02;5.53;;;;;;;14.87;58.41;96245.25;6093586;23;20011;-94
2021/10/06 01:13:37;;;;;;;8.85;4.97;;;;;;;14.98;56.16;96258.22;6093757;23;20029;-93
2021/10/06 01:16:04;;;;;;;11.98;5.20;;;;;;;15.09;57.53;96288.38;6093558;23;20066;-94
2021/10/06 01:18:29;;;;;;;10.80;5.28;;;;;;;14.98;57.09;96269.16;6093563;23;20340;-93
2021/10/06 01:20:55;;;;;;;20.75;6.55;;;;;;;15.16;58.73;96285.16;6093530;23;20014;-93
2021/10/06 01:23:21;;;;;;;8.05;4.90;;;;;;;15.11;54.98;96294.09;6093605;23;19998;-93
2021/10/06 01:25:46;;;;;;;8.82;5.03;;;;;;;15.06;60.25;96259.25;6093645;23;20010;-93
2021/10/06 01:28:12;;;;;;;10.02;5.05;;;;;;;15.15;58.68;96286.41;6093636;23;20003;-93
2021/10/06 01:30:38;;;;;;;10.07;5.38;;;;;;;14.82;61.90;96256.16;6093646;23;20007;-94
2021/10/06 01:33:04;;;;;;;10.15;5.88;;;;;;;14.61;62.19;96225.44;6093772;23;20331;-93
2021/10/06 01:35:29;;;;;;;7.13;5.47;;;;;;;14.70;61.46;96247.13;6093517;23;20007;-93
2021/10/06 01:37:55;;;;;;;10.73;5.35;;;;;;;14.89;62.07;96278.31;6093490;23;20022;-93
2021/10/06 01:40:22;;;;;;;9.73;5.38;;;;;;;14.90;63.84;96268.84;6093738;23;20006;-93
2021/10/06 01:42:49;;;;;;;9.73;5.68;;;;;;;14.87;61.81;96261.66;6093336;23;20076;-94
2021/10/06 01:45:26;;;;;;;8.20;4.93;;;;;;;14.78;59.50;96231.75;6093701;23;20003;-94
2021/10/06 01:47:53;;;;;;;11.32;6.13;;;;;;;14.81;56.09;96232.78;6093217;23;20431;-93
2021/10/06 01:50:21;;;;;;;12.50;6.22;;;;;;;14.78;58.27;96233.75;6093656;23;20010;-93
2021/10/06 01:52:47;;;;;;;12.20;5.68;;;;;;;15.01;56.12;96270.16;6093508;23;20033;-94
2021/10/06 01:55:12;;;;;;;6.25;4.90;;;;;;;14.85;55.82;96241.50;6093615;23;20007;-93
2021/10/06 01:57:38;;;;;;;6.10;4.78;;;;;;;14.89;55.14;96242.75;6093418;23;20011;-94
2021/10/06 02:00:04;;;;;;;8.82;5.25;;;;;;;14.88;59.04;96252.19;6093487;23;20011;-93
2021/10/06 02:02:30;;;;;;;16.83;5.47;;;;;;;14.86;56.53;96240.25;6093334;23;20089;-93
2021/10/06 02:04:56;;;;;;;10.77;5.22;;;;;;;14.87;57.34;96236.31;6093489;23;20506;-93
2021/10/06 02:07:21;;;;;;;6.82;4.55;;;;;;;14.79;59.08;96219.59;6093587;23;20434;-93
2021/10/06 02:09:47;;;;;;;8.00;4.88;;;;;;;14.88;57.92;96246.00;6093494;23;20013;-95
2021/10/06 02:12:12;;;;;;;8.13;5.13;;;;;;;14.92;59.61;96244.53;6093505;23;20006;-93
2021/10/06 02:14:38;;;;;;;7.35;4.88;;;;;;;14.76;58.33;96214.38;6093624;23;20014;-93
2021/10/06 02:17:04;;;;;;;8.32;5.03;;;;;;;14.85;57.29;96220.38;6093479;23;20335;-93
2021/10/06 02:19:29;;;;;;;8.90;4.95;;;;;;;14.82;60.30;96215.16;6093293;23;20339;-93
2021/10/06 02:21:55;;;;;;;8.20;5.00;;;;;;;14.99;58.87;96231.63;6093362;23;20088;-93
2021/10/06 02:24:20;;;;;;;5.78;4.45;;;;;;;14.78;58.59;96209.91;6093358;23;20378;-94
2021/10/06 02:26:46;;;;;;;6.05;4.80;;;;;;;14.91;56.01;96231.31;6093405;23;20002;-93
2021/10/06 02:29:12;;;;;;;9.85;5.13;;;;;;;14.98;54.59;96243.81;6093360;23;20037;-94
2021/10/06 02:31:37;;;;;;;10.70;5.28;;;;;;;14.80;58.19;96226.53;6093418;23;20465;-93
2021/10/06 02:34:03;;;;;;;11.02;5.88;;;;;;;14.96;61.35;96240.81;6093540;23;20093;-94
2021/10/06 02:36:28;;;;;;;7.63;5.15;;;;;;;14.66;59.38;96213.81;6093594;23;20064;-93
2021/10/06 02:38:54;;;;;;;7.30;5.50;;;;;;;14.76;61.26;96212.38;6093347;23;20010;-93
2021/10/06 02:41:19;;;;;;;10.18;5.40;;;;;;;14.66;61.30;96200.16;6093451;23;20121;-94
2021/10/06 02:43:45;;;;;;;9.02;5.65;;;;;;;14.64;61.35;96195.16;6093071;23;20367;-93
2021/10/06 02:46:10;;;;;;;7.72;4.93;;;;;;;14.66;59.56;96200.16;6093413;23;20006;-93
2021/10/06 02:48:36;;;;;;;8.20;5.68;;;;;;;14.86;58.45;96212.91;6093440;23;20010;-93
2021/10/06 02:51:02;;;;;;;7.55;4.82;;;;;;;14.89;58.25;96226.34;6093424;23;20010;-95
2021/10/06 02:53:28;;;;;;;16.67;5.60;;;;;;;14.64;62.30;96205.34;6093418;23;20014;-92
2021/10/06 02:55:53;;;;;;;7.25;5.53;;;;;;;14.55;63.02;96209.03;6093571;23;20344;-94
2021/10/06 02:58:19;;;;;;;7.50;5.70;;;;;;;14.60;63.45;96213.78;6092744;23;20013;-93
2021/10/06 03:00:44;;;;;;;11.52;5.90;;;;;;;14.60;62.10;96213.78;6093386;23;20002;-94
2021/10/06 03:03:10;;;;;;;8.02;5.70;;;;;;;14.35;63.94;96184.50;6093414;23;20010;-93
2021/10/06 03:05:36;;;;;;;8.20;5.63;;;;;;;14.50;63.99;96203.53;6093173;23;20343;-93
2021/10/06 03:08:01;;;;;;;11.00;6.13;;;;;;;14.37;63.82;96207.38;6093289;23;20010;-94
2021/10/06 03:10:27;;;;;;;6.95;5.30;;;;;;;14.59;61.52;96228.66;6093150;23;20012;-94
2021/10/06 03:12:52;;;;;;;8.27;5.63;;;;;;;14.51;62.48;96233.09;6093178;23;20006;-94
2021/10/06 03:15:18;;;;;;;9.23;5.70;;;;;;;14.55;63.59;96227.41;6093367;23;20086;-94
2021/10/06 03:17:44;;;;;;;7.45;5.70;;;;;;;14.44;62.73;96208.19;6093327;23;20086;-93
2021/10/06 03:20:10;;;;;;;9.63;5.45;;;;;;;14.66;63.45;96236.41;6093012;23;20346;-94
2021/10/06 03:22:36;;;;;;;7.70;5.60;;;;;;;14.47;61.95;96218.13;6093213;23;20070;-93
2021/10/06 03:25:03;;;;;;;11.75;5.97;;;;;;;14.44;64.78;96211.66;6093221;23;20025;-93
2021/10/06 03:27:29;;;;;;;11.90;6.10;;;;;;;14.39;62.61;96218.56;6093350;23;20024;-94
2021/10/06 03:29:54;;;;;;;10.20;5.63;;;;;;;14.52;65.09;96236.56;6092934;23;20439;-94
2021/10/06 03:32:20;;;;;;;11.40;6.05;;;;;;;14.40;63.07;96225.53;6093241;23;20076;-93
2021/10/06 03:34:46;;;;;;;10.23;5.82;;;;;;;14.52;63.41;96242.03;6093188;23;20012;-93
2021/10/06 03:37:12;;;;;;;12.07;5.63;;;;;;;14.35;63.57;96225.50;6092979;23;20093;-94
2021/10/06 03:39:37;;;;;;;8.27;5.80;;;;;;;14.28;62.01;96215.75;6093108;23;20018;-95
2021/10/06 03:42:03;;;;;;;7.53;5.65;;;;;;;14.40;63.81;96222.06;6093198;23;20075;-94
2021/10/06 03:44:28;;;;;;;9.27;5.35;;;;;;;14.23;62.77;96204.81;6092982;23;20022;-94
2021/10/06 03:46:54;;;;;;;18.50;6.85;;;;;;;14.32;63.73;96218.25;6093025;23;20431;-93
2021/10/06 03:49:20;;;;;;;7.97;6.10;;;;;;;14.49;62.85;96213.72;6093137;23;20002;-94
2021/10/06 03:51:45;;;;;;;8.88;5.95;;;;;;;14.42;62.85;96212.13;6092977;23;20010;-93
2021/10/06 03:54:11;;;;;;;8.38;5.38;;;;;;;14.31;61.89;96206.59;6092950;23;20007;-93
2021/10/06 03:56:37;;;;;;;11.27;6.38;;;;;;;14.54;62.97;96240.31;6092954;23;20002;-93
2021/10/06 03:59:02;;;;;;;9.02;5.78;;;;;;;14.45;64.40;96239.72;6092815;23;20006;-93
2021/10/06 04:01:28;;;;;;;10.98;5.95;;;;;;;14.36;66.35;96222.25;6092807;23;20063;-93
2021/10/06 04:03:53;;;;;;;13.25;6.07;;;;;;;14.31;65.45;96216.75;6092608;23;20063;-93
2021/10/06 04:06:19;;;;;;;10.32;6.32;;;;;;;14.34;66.47;96222.00;6092830;23;20056;-93
2021/10/06 04:08:45;;;;;;;7.53;6.13;;;;;;;14.22;66.28;96222.41;6092715;23;20475;-93
2021/10/06 04:11:10;;;;;;;8.45;6.07;;;;;;;14.08;66.69;96213.88;6092545;23;20011;-94
2021/10/06 04:13:36;;;;;;;10.65;6.75;;;;;;;14.07;68.24;96206.91;6092705;23;20009;-93
2021/10/06 04:16:01;;;;;;;10.45;6.47;;;;;;;14.12;68.23;96238.97;6094448;23;20064;-93
2021/10/06 04:18:27;;;;;;;9.00;6.47;;;;;;;14.27;67.98;96249.75;6092970;23;20007;-94
2021/10/06 04:20:53;;;;;;;8.32;6.45;;;;;;;14.11;66.66;96228.50;6092791;23;20091;-94
2021/10/06 04:23:18;;;;;;;8.27;6.43;;;;;;;14.03;68.51;96228.22;6092825;23;20009;-93
2021/10/06 04:25:44;;;;;;;9.55;6.40;;;;;;;13.99;68.12;96208.56;6092625;23;20085;-94
2021/10/06 04:28:10;;;;;;;12.10;6.63;;;;;;;14.05;68.32;96223.00;6092747;23;20030;-94
2021/10/06 04:30:35;;;;;;;9.15;5.93;;;;;;;14.02;65.11;96220.50;6092511;23;20015;-93
2021/10/06 04:33:01;;;;;;;10.38;6.22;;;;;;;14.26;65.87;96251.00;6092527;23;20012;-93
2021/10/06 04:35:27;;;;;;;14.65;7.25;;;;;;;14.12;69.40;96249.91;6092526;23;20012;-94
2021/10/06 04:37:53;;;;;;;10.63;6.55;;;;;;;14.07;68.19;96247.13;6092691;23;20010;-93
2021/10/06 04:40:19;;;;;;;10.25;6.45;;;;;;;13.95;68.24;96220.94;6091991;23;20007;-93
2021/10/06 04:42:46;;;;;;;8.82;6.60;;;;;;;14.01;67.66;96244.34;6090573;23;20026;-93
2021/10/06 04:45:12;;;;;;;11.07;6.68;;;;;;;14.24;68.20;96260.91;6094443;23;20034;-91
2021/10/06 04:47:38;;;;;;;10.77;6.70;;;;;;;14.18;65.19;96257.41;6095020;23;20094;-92
2021/10/06 04:50:04;;;;;;;8.70;6.47;;;;;;;14.10;65.84;96246.13;6092003;23;20059;-91
2021/10/06 04:52:30;;;;;;;12.60;6.50;;;;;;;14.08;66.82;96265.75;6095812;23;20064;-91
2021/10/06 04:54:56;;;;;;;8.18;5.90;;;;;;;14.00;66.00;96253.75;6090272;23;20093;-91
2021/10/06 04:57:21;;;;;;;10.05;6.65;;;;;;;14.21;64.67;96273.53;6091046;23;20002;-91
2021/10/06 04:59:47;;;;;;;9.20;6.82;;;;;;;13.97;64.45;96230.16;6091434;23;20014;-91
2021/10/06 05:02:12;;;;;;;8.82;6.25;;;;;;;14.02;64.32;96245.09;6091043;23;20323;-92
2021/10/06 05:04:38;;;;;;;11.93;6.63;;;;;;;14.28;64.47;96270.41;6091664;23;20006;-91
2021/10/06 05:07:03;;;;;;;9.13;6.28;;;;;;;13.98;65.53;96253.47;6091357;23;20338;-92
2021/10/06 05:09:30;;;;;;;12.40;6.82;;;;;;;14.05;65.62;96272.16;6090984;23;20008;-91
2021/10/06 05:11:55;;;;;;;11.48;7.10;;;;;;;14.07;65.76;96266.22;6091848;23;20006;-91
2021/10/06 05:14:21;;;;;;;8.65;6.78;;;;;;;13.97;65.12;96260.19;6090808;23;20014;-93
2021/10/06 05:16:46;;;;;;;12.32;6.95;;;;;;;13.94;66.66;96252.94;6091872;23;20014;-93
2021/10/06 05:19:12;;;;;;;13.85;6.55;;;;;;;13.95;67.09;96265.34;6092993;23;20331;-92
2021/10/06 05:21:41;;;;;;;12.90;6.70;;;;;;;13.93;67.23;96256.91;6091961;23;20021;-92
2021/10/06 05:24:07;;;;;;;9.13;6.43;;;;;;;14.00;66.93;96258.44;6092801;23;20013;-92
2021/10/06 05:26:32;;;;;;;8.43;6.20;;;;;;;14.00;65.68;96267.38;6093244;23;20006;-92
2021/10/06 05:28:58;;;;;;;9.82;6.57;;;;;;;14.00;64.82;96258.44;6092937;23;20002;-91
2021/10/06 05:31:23;;;;;;;12.57;6.68;;;;;;;14.02;66.48;96267.69;6093152;23;20038;-91
2021/10/06 05:33:49;;;;;;;9.80;5.95;;;;;;;14.12;65.67;96271.75;6093070;23;20010;-91
2021/10/06 05:36:18;;;;;;;8.68;6.47;;;;;;;13.98;66.14;96261.69;6093280;23;20013;-91
2021/10/06 05:38:43;;;;;;;10.07;6.95;;;;;;;14.17;66.38;96273.03;6092915;23;20002;-92
2021/10/06 05:41:10;;;;;;;10.48;6.50;;;;;;;14.19;66.31;96280.72;6093074;23;20465;-91
2021/10/06 05:43:36;;;;;;;9.35;6.07;;;;;;;14.03;66.83;96257.50;6092640;23;20018;-92
2021/10/06 05:46:02;;;;;;;10.50;6.82;;;;;;;13.99;68.23;96265.91;6092927;23;20014;-92
2021/10/06 05:48:27;;;;;;;13.32;6.50;;;;;;;13.83;68.48;96250.84;6092875;23;20431;-91
2021/10/06 05:50:53;;;;;;;9.30;6.63;;;;;;;13.88;69.12;96260.34;6093081;23;20007;-91
2021/10/06 05:53:18;;;;;;;9.88;7.03;;;;;;;13.78;69.99;96257.00;6093253;23;20090;-90
2021/10/06 05:55:44;;;;;;;9.05;6.88;;;;;;;13.71;69.27;96253.97;6093174;23;20045;-91
2021/10/06 05:58:10;;;;;;;12.90;7.25;;;;;;;13.74;70.78;96266.63;6092892;23;20340;-91
2021/10/06 06:00:36;;;;;;;11.00;7.20;;;;;;;13.75;68.54;96255.25;6092780;23;20015;-91
2021/10/06 06:03:02;;;;;;;11.98;6.90;;;;;;;13.66;71.33;96268.28;6092089;23;20087;-91
2021/10/06 06:05:28;;;;;;;9.60;6.88;;;;;;;13.58;73.75;96271.47;6092862;23;20055;-92
2021/10/06 06:07:54;;;;;;;10.48;6.93;;;;;;;13.70;72.61;96275.03;6093165;23;20010;-91
2021/10/06 06:10:19;;;;;;;8.75;6.90;;;;;;;13.70;71.37;96287.94;6093086;23;20006;-92
2021/10/06 06:12:46;;;;;;;9.77;7.03;;;;;;;13.59;71.03;96264.75;6092756;23;20010;-90
2021/10/06 06:15:12;;;;;;;11.25;7.50;;;;;;;13.70;73.55;96310.53;6092975;23;20022;-92
2021/10/06 06:17:38;;;;;;;11.25;8.15;;;;;;;13.38;75.52;96285.09;6092625;23;20495;-92
2021/10/06 06:20:15;;;;;;;13.38;8.07;;;;;;;13.54;75.48;96300.91;6093037;23;20037;-92
2021/10/06 06:22:41;;;;;;;10.95;7.95;;;;;;;13.48;76.35;96313.75;6093154;23;20339;-92
2021/10/06 06:25:09;;;;;;;10.80;8.40;;;;;;;13.23;77.58;96293.34;6093198;23;20010;-93
2021/10/06 06:27:35;;;;;;;12.20;8.55;;;;;;;13.22;79.38;96316.38;6094550;23;20059;-93
2021/10/06 06:30:02;;;;;;;11.20;9.35;;;;;;;13.06;79.92;96292.34;6093220;23;20483;-92
2021/10/06 06:32:27;;;;;;;13.05;9.70;;;;;;;13.14;81.18;96314.50;6092042;23;20081;-93
2021/10/06 06:34:53;;;;;;;12.00;9.13;;;;;;;13.11;80.71;96321.66;6092647;23;20033;-93
2021/10/06 06:37:18;;;;;;;16.23;9.32;;;;;;;13.08;80.00;96311.69;6092789;23;20068;-92
2021/10/06 06:39:44;;;;;;;11.65;9.02;;;;;;;13.25;79.82;96333.75;6092083;23;20010;-93
2021/10/06 06:42:10;;;;;;;12.77;8.88;;;;;;;13.09;80.94;96327.56;6093133;23;20369;-91
2021/10/06 06:44:35;;;;;;;13.75;8.60;;;;;;;12.99;80.67;96312.56;6092686;23;20038;-93
2021/10/06 06:47:01;;;;;;;10.70;8.25;;;;;;;13.09;80.44;96335.75;6093233;23;20057;-92
2021/10/06 06:49:27;;;;;;;10.52;8.60;;;;;;;13.00;82.05;96327.72;6093111;23;20448;-92
2021/10/06 06:51:52;;;;;;;13.35;8.80;;;;;;;13.09;80.47;96337.72;6093084;23;20006;-92
2021/10/06 06:54:18;;;;;;;11.60;9.00;;;;;;;13.00;80.79;96333.16;6092959;23;20007;-93
2021/10/06 06:56:43;;;;;;;11.82;8.65;;;;;;;13.14;80.22;96341.75;6085323;23;20446;-92
2021/10/06 06:59:09;;;;;;;11.63;8.60;;;;;;;13.19;79.08;96352.75;6092522;23;20010;-93
2021/10/06 07:01:36;;;;;;;14.50;9.00;;;;;;;13.16;79.53;96344.78;6092758;23;20010;-93
2021/10/06 07:04:02;;;;;;;11.32;8.65;;;;;;;13.17;81.56;96344.31;6092817;23;20014;-93
2021/10/06 07:06:33;;;;;;;14.80;8.63;;;;;;;13.08;81.18;96344.41;6092851;23;20368;-92
2021/10/06 07:08:59;;;;;;;11.95;8.63;;;;;;;13.30;80.03;96374.75;6092539;23;20081;-92
2021/10/06 07:11:25;;;;;;;12.80;10.20;;;;;;;13.29;78.94;96356.13;6092353;23;20378;-92
2021/10/06 07:13:51;;;;;;;13.65;8.93;;;;;;;13.20;80.52;96351.50;6092681;23;20435;-92
2021/10/06 07:16:16;;;;;;;15.68;9.73;;;;;;;13.14;79.55;96342.50;6092113;23;20011;-92
2021/10/06 07:18:42;;;;;;;13.85;9.70;;;;;;;13.06;81.32;96336.72;6092838;23;20006;-93
2021/10/06 07:21:08;;;;;;;14.23;9.63;;;;;;;13.08;81.70;96341.69;6093968;23;20374;-92
2021/10/06 07:23:33;;;;;;;15.82;10.20;;;;;;;13.03;83.19;96348.56;6091936;23;20002;-92
2021/10/06 07:25:59;;;;;;;13.45;9.75;;;;;;;13.06;82.49;96334.00;6091845;23;20011;-92
2021/10/06 07:28:24;;;;;;;14.10;9.05;;;;;;;13.27;80.30;96326.63;6091830;23;20305;-92
2021/10/06 07:30:50;;;;;;;13.73;9.65;;;;;;;13.33;79.71;96323.97;6093021;23;20085;-92
2021/10/06 07:33:16;;;;;;;12.85;9.45;;;;;;;13.31;80.69;96332.59;6092633;23;20013;-92
2021/10/06 07:35:42;;;;;;;13.23;9.90;;;;;;;13.34;81.91;96361.66;6092374;23;20018;-92
2021/10/06 07:38:08;;;;;;;14.88;9.40;;;;;;;13.20;81.80;96343.34;6092242;23;20458;-92
2021/10/06 07:40:33;;;;;;;18.27;9.43;;;;;;;12.87;82.79;96300.00;6091894;23;20017;-92
2021/10/06 07:42:59;;;;;;;11.65;9.30;;;;;;;13.04;81.83;96338.41;6092610;23;20022;-92
2021/10/06 07:45:24;;;;;;;12.40;8.90;;;;;;;13.27;79.42;96367.53;6092293;23;20508;-92
2021/10/06 07:47:50;;;;;;;13.35;8.82;;;;;;;13.06;80.70;96347.63;6092416;23;19998;-92
2021/10/06 07:50:16;;;;;;;16.25;8.65;;;;;;;12.92;81.41;96337.50;6092405;23;20014;-91
2021/10/06 07:52:42;;;;;;;10.27;8.68;;;;;;;13.04;81.34;96357.47;6092767;23;20006;-92
2021/10/06 07:55:08;;;;;;;10.45;8.50;;;;;;;13.14;81.53;96377.97;6092206;23;20059;-92
2021/10/06 07:57:35;;;;;;;15.63;8.63;;;;;;;12.92;81.91;96350.38;6092141;23;20002;-91
2021/10/06 08:00:05;;;;;;;10.15;8.75;;;;;;;12.99;81.98;96348.00;6092435;23;20010;-91
2021/10/06 08:02:31;;;;;;;;;;;;;;;13.16;82.09;96378.25;6092712;23;20014;-91
2021/10/06 08:04:56;;;;;;;11.60;8.85;;;;;;;12.99;80.07;96352.69;6092473;23;19936;-91
2021/10/06 08:07:22;;;;;;;8.68;7.70;;;;;;;13.01;79.94;96350.28;6092283;23;20010;-92
2021/10/06 08:09:47;;;;;;;10.98;8.88;;;;;;;12.99;78.79;96361.63;6092531;23;20431;-92
2021/10/06 08:12:19;;;;;;;14.13;9.30;;;;;;;12.95;78.89;96365.78;6092425;23;20085;-91
2021/10/06 08:14:45;;;;;;;11.10;9.30;;;;;;;12.94;79.48;96381.38;6092504;23;20010;-92
2021/10/06 08:17:10;;;;;;;10.55;8.43;;;;;;;13.01;77.70;96381.00;6092413;23;20013;-92
2021/10/06 08:19:36;;;;;;;12.88;7.38;;;;;;;13.03;74.80;96386.72;6092393;23;20061;-91
2021/10/06 08:22:02;;;;;;;11.13;7.65;;;;;;;13.29;76.19;96413.41;6092007;23;20089;-91
2021/10/06 08:24:27;;;;;;;9.23;7.65;;;;;;;13.11;75.99;96398.75;6091906;23;20045;-92
2021/10/06 08:26:53;;;;;;;9.00;7.82;;;;;;;13.09;77.63;96389.53;6092339;23;20006;-92
2021/10/06 08:29:19;;;;;;;9.00;7.63;;;;;;;13.09;79.93;96398.47;6092487;23;20029;-92
2021/10/06 08:31:45;;;;;;;12.25;8.25;;;;;;;13.09;79.21;96403.91;6092328;23;20148;-92
2021/10/06 08:34:10;;;;;;;11.45;8.10;;;;;;;13.08;79.95;96391.50;6092010;23;20013;-91
2021/10/06 08:36:37;;;;;;;11.95;8.27;;;;;;;13.11;79.68;96398.00;6092256;23;20021;-92
2021/10/06 08:39:04;;;;;;;15.05;8.30;;;;;;;13.06;80.06;96404.13;6091857;23;20011;-91
2021/10/06 08:41:31;;;;;;;13.32;8.70;;;;;;;13.10;79.75;96402.72;6092160;23;20006;-91
2021/10/06 08:43:57;;;;;;;10.40;8.13;;;;;;;13.02;79.91;96409.00;6096981;23;20049;-92
2021/10/06 08:46:23;;;;;;;12.30;9.23;;;;;;;13.15;81.29;96420.34;6096488;23;20010;-91
2021/10/06 08:48:56;;;;;;;12.82;9.73;;;;;;;13.21;80.71;96423.97;6121739;23;19998;-92
2021/10/06 08:51:23;;;;;;;12.05;8.50;;;;;;;13.07;76.34;96422.72;6096059;23;20001;-92
2021/10/06 08:53:49;;;;;;;10.73;8.32;;;;;;;13.08;78.43;96423.47;6096552;23;20045;-92
2021/10/06 08:56:16;;;;;;;13.13;8.65;;;;;;;13.01;79.20;96424.63;6097588;23;20010;-90
2021/10/06 08:58:42;;;;;;;12.48;7.55;;;;;;;13.00;76.55;96417.66;6098101;23;20044;-92
2021/10/06 09:01:19;;;;;;;11.70;8.05;;;;;;;13.03;76.85;96418.69;6124205;23;20001;-91
2021/10/06 09:03:45;;;;;;;9.93;7.95;;;;;;;12.98;79.02;96433.72;6098353;23;20435;-92
2021/10/06 09:06:15;;;;;;;10.07;8.30;;;;;;;13.02;78.44;96439.00;6097635;23;20089;-90
2021/10/06 09:08:44;;;;;;;10.07;8.45;;;;;;;13.10;75.69;96451.78;6097933;23;20308;-92
2021/10/06 09:11:11;;;;;;;14.48;9.10;;;;;;;12.95;78.33;96423.78;6089237;23;20014;-90
2021/10/06 09:13:40;;;;;;;11.77;9.70;;;;;;;13.02;79.79;96425.38;6096824;23;20009;-91
2021/10/06 09:16:06;;;;;;;12.93;9.13;;;;;;;13.04;77.71;96428.38;6098179;23;20439;-92
2021/10/06 09:18:33;;;;;;;10.98;9.32;;;;;;;12.99;79.23;96429.78;6098022;23;20013;-92
2021/10/06 09:21:02;;;;;;;13.40;9.98;;;;;;;12.85;81.05;96420.41;6098011;23;20725;-91
2021/10/06 09:23:29;;;;;;;10.18;9.10;;;;;;;12.88;79.57;96423.41;6098112;23;20033;-92
2021/10/06 09:26:05;;;;;;;11.07;7.93;;;;;;;12.89;77.04;96416.72;6097663;23;20033;-92
2021/10/06 09:28:46;;;;;;;8.18;7.40;;;;;;;13.18;77.28;96445.94;6098117;23;20028;-91
2021/10/06 09:31:18;;;;;;;10.52;8.65;;;;;;;12.89;78.18;96417.50;6097932;23;20006;-91
2021/10/06 09:33:46;;;;;;;10.07;8.27;;;;;;;12.90;76.96;96445.50;6097542;23;20006;-91
2021/10/06 09:36:16;;;;;;;9.88;8.50;;;;;;;12.97;78.40;96445.88;6123452;23;20381;-92
2021/10/06 09:39:03;;;;;;;10.27;7.72;;;;;;;12.94;75.82;96446.78;6097834;23;20006;-92
2021/10/06 09:41:39;;;;;;;10.93;8.50;;;;;;;12.93;77.50;96442.56;6101962;23;20486;-92
2021/10/06 09:44:23;;;;;;;10.80;8.15;;;;;;;12.79;77.01;96427.00;6097545;23;20018;-92
2021/10/06 09:47:02;;;;;;;9.25;8.25;;;;;;;12.88;76.95;96445.19;6123501;23;20006;-92
2021/10/06 09:49:33;;;;;;;10.35;8.65;;;;;;;12.87;79.54;96452.63;6097485;23;20014;-92
2021/10/06 09:52:28;;;;;;;12.38;8.60;;;;;;;12.92;77.76;96445.78;6098199;23;20006;-92
2021/10/06 09:55:07;;;;;;;9.55;8.45;;;;;;;12.75;81.05;96434.59;6097182;23;20098;-92
2021/10/06 09:57:39;;;;;;;11.25;8.88;;;;;;;12.93;79.33;96441.81;6097715;23;20006;-91
2021/10/06 10:00:08;;;;;;;14.65;8.68;;;;;;;13.10;78.01;96459.19;6097985;23;20013;-92
2021/10/06 10:02:35;;;;;;;15.93;9.13;;;;;;;13.02;79.08;96444.44;6097429;23;20072;-92
2021/10/06 10:05:01;;;;;;;11.57;8.90;;;;;;;13.15;80.71;96461.25;6123232;23;20036;-92
2021/10/06 10:07:27;;;;;;;10.18;9.00;;;;;;;13.04;80.09;96433.81;6097477;23;20033;-93
2021/10/06 10:09:53;;;;;;;11.30;8.68;;;;;;;12.98;79.30;96436.47;6098058;23;20010;-93
2021/10/06 10:12:20;;;;;;;12.98;9.55;;;;;;;13.07;82.67;96454.69;6098057;23;20006;-93
2021/10/06 10:14:47;;;;;;;10.43;9.40;;;;;;;12.95;78.63;96431.22;6091547;23;20014;-92
2021/10/06 10:17:13;;;;;;;14.80;10.40;;;;;;;12.97;80.92;96434.97;6097242;23;20040;-92
2021/10/06 10:20:19;;;;;;;13.20;9.60;;;;;;;13.01;81.31;96445.69;6097527;23;20089;-92
2021/10/06 10:23:04;;;;;;;9.88;8.80;;;;;;;13.06;81.19;96445.78;6097100;23;20010;-92
2021/10/06 10:25:38;;;;;;;12.82;8.68;;;;;;;13.23;80.50;96456.97;6097516;23;20332;-92
2021/10/06 10:28:07;;;;;;;11.00;7.85;;;;;;;13.26;76.99;96452.53;6097797;23;20006;-94
2021/10/06 10:30:35;;;;;;;11.10;9.30;;;;;;;13.05;80.18;96429.88;6097999;23;20006;-93
2021/10/06 10:33:01;;;;;;;11.85;9.20;;;;;;;12.97;77.96;96423.31;6103610;23;20002;-93
2021/10/06 10:35:38;;;;;;;10.95;9.05;;;;;;;12.94;77.94;96407.88;6097872;23;20465;-93
2021/10/06 10:38:09;;;;;;;10.30;8.35;;;;;;;13.08;78.42;96428.94;6097787;23;20010;-94
2021/10/06 10:40:37;;;;;;;10.13;9.05;;;;;;;13.15;78.70;96438.69;6098383;23;20010;-93
2021/10/06 10:43:23;;;;;;;11.88;8.43;;;;;;;13.05;79.99;96430.63;6099637;23;20101;-93
2021/10/06 10:46:11;;;;;;;11.20;8.63;;;;;;;12.95;81.67;96414.84;6097974;23;20006;-93
2021/10/06 10:51:59;;;;;;;10.65;9.15;;;;;;;13.10;79.00;96413.63;6123972;23;20055;-93
2021/10/06 10:54:33;;;;;;;11.13;9.10;;;;;;;12.96;80.40;96403.47;6097847;23;20049;-93
2021/10/06 10:57:19;;;;;;;13.02;9.38;;;;;;;13.07;81.45;96433.63;6097900;23;20077;-94
2021/10/06 10:59:46;;;;;;;10.60;8.40;;;;;;;12.94;81.22;96421.50;6105257;23;20093;-92
2021/10/06 11:02:18;;;;;;;10.13;9.05;;;;;;;13.03;82.11;96432.31;6098802;23;20014;-96
2021/10/06 11:04:46;;;;;;;12.98;8.85;;;;;;;12.81;81.07;96387.13;6102170;23;20016;-92
2021/10/06 11:07:22;;;;;;;10.30;8.35;;;;;;;13.06;78.92;96415.03;6097882;23;20009;-93
2021/10/06 11:09:58;;;;;;;10.07;8.70;;;;;;;13.11;78.51;96426.03;6092055;23;20571;-92
2021/10/06 11:12:24;;;;;;;10.95;8.98;;;;;;;13.12;79.88;96432.22;6097212;23;20001;-92
2021/10/06 11:15:14;;;;;;;10.15;9.07;;;;;;;13.07;80.37;96438.34;6097866;23;20016;-93
2021/10/06 11:18:08;;;;;;;10.75;9.52;;;;;;;13.04;81.19;96439.28;6097687;23;20012;-92
2021/10/06 11:20:58;;;;;;;11.25;9.27;;;;;;;13.05;79.56;96436.09;6097434;23;20082;-94
2021/10/06 11:23:30;;;;;;;12.30;9.40;;;;;;;13.00;80.55;96436.75;6097128;23;20002;-93
2021/10/06 11:26:10;;;;;;;13.85;9.90;;;;;;;12.97;81.02;96429.50;6096750;23;20234;-93
2021/10/06 11:28:50;;;;;;;12.80;9.77;;;;;;;13.02;78.86;96439.00;6097768;23;20463;-93
2021/10/06 11:31:20;;;;;;;;;;;;;;;12.94;80.51;96427.72;6098113;23;20454;-93
2021/10/06 11:33:46;;;;;;;9.88;8.77;;;;;;;12.70;80.91;96402.56;6097111;23;19932;-93